UKKK/IEV METAR and TAF weather

Enter ICAO airport designator
Station Type Date Time Source
UKKK METAR 2020/09/22 00:00 UTC NOAA

UKKK 220000Z 00000MPS CAVOK 08/06 Q1022 R08/CLRD70 NOSIG


Station Type Date Time Source
UKKK Decoded METAR 2020/09/22 00:00 UTC NOAA

Kyiv, Ukraine (UKKK) 50-24N 030-34E 167M
Sep 21, 2020 - 08:00 PM EDT / 2020.09.22 0000 UTC
Wind: Calm:0
Visibility: greater than 7 mile(s):0
Temperature: 46 F (8 C)
Dew Point: 42 F (6 C)
Relative Humidity: 87%
Pressure (altimeter): 30.18 in. Hg (1022 hPa)
ob: UKKK 220000Z 00000MPS CAVOK 08/06 Q1022 R08/CLRD70 NOSIG
cycle: 0

Station Type Date Time Source
UKKK TAF 2020/09/21 18:06 UTC NOAA

TAF TAF UKKK 211703Z 2118/2218 VRB01MPS 9999 SCT030 TX25/2212Z TN05/2204Z
TEMPO 2120/2205 2000 BR SCT007
BECMG 2205/2207 20003G08MPS

Example: see airport list